Aviation Digital Data Service (ADDS)

Output produced by METARs form (1741 UTC 19 April 2014)
found at http://aviationweather.gov/adds/metars/
 
KDET 191721Z 1918/2018 05009KT P6SM SKC 
     FM192000 10010KT P6SM SKC 
     FM200100 07005KT P6SM SCT250 
     FM201500 16007KT P6SM SCT250